Terminal Aerodrome Forecast
Issued by NWS

Home | Current Version | Previous Version | Graphics & Text | Print | Product List | Glossary On
Versions: 1 2 3 4 5 6 7 8 9 10 11 12 13 14 15 16 17 18 19
000
FTUS43 KBIS 270522
TAFDIK
TAF
KDIK 270522Z 2706/2806 13014KT P6SM SCT070 BKN150
     FM271500 15015G23KT P6SM SCT035
     FM272000 16018G28KT P6SM SCT050
     FM272300 15015G25KT P6SM VCTS BKN070CB OVC100
     FM280400 27018G28KT P6SM OVC035=

USA.gov is the U.S. government's official web portal to all federal, state and local government web resources and services.